»·PEaware :: AMMO17 KEND-KEND

AMMO17 :: KEND-KEND

FLIGHT INFORMATION

Flight Status: Arrived
Operator: Unknown
More flights by this operator :: More flights under this callsign
Pilot: Erica D. (22207)
Aircraft: BEECH AIRCRAFT T-6A TEXAN
(TEX2)
More flights by this aircraft type
Origin: KEND Vance AFB
United States
Destination: KEND Vance AFB
United States
More flights between these airports :: More routes between these airports
Route: +EL
File this flight plan on PilotEdge
Remarks:
Altitude:
(Current/Filed)
0ft
Speed:
(Current/Filed)
0kts
Departed: 14-Sep-20 01:26 PM
Arrived: 14-Sep-20 02:16 PM
Distance/Time
Traveled:
0nm/0:50
Distance/Time
To Go:
Arrived

Flight Plot

Page will automatically refresh every two minutes.

Flight plan parsing failed; only flown route is shown


Map Options




Map Legend


Flown Route
Filed Route
Departure Airport
Arrival Airport
Navaid (VOR, NDB)
Fix

Horizontal Profiles

Position Reports

Time Latitude Longitude Heading Altitude Ground
Speed
14-Sep-20 13:16 36.346971 -97.909990 217 1279ft 0kts
14-Sep-20 13:17 36.346971 -97.909990 216 1279ft 0kts
14-Sep-20 13:18 36.346971 -97.909990 217 1279ft 0kts
14-Sep-20 13:19 36.346971 -97.909990 217 1279ft 0kts
14-Sep-20 13:20 36.346971 -97.909990 216 1279ft 0kts
14-Sep-20 13:21 36.346971 -97.909990 217 1279ft 0kts
14-Sep-20 13:22 36.346921 -97.910037 220 1279ft 1kts
14-Sep-20 13:23 36.346877 -97.911075 235 1278ft 1kts
14-Sep-20 13:24 36.346774 -97.911121 183 1279ft 0kts
14-Sep-20 13:25 36.320909 -97.911719 180 1636ft 188kts
14-Sep-20 13:26 36.335237 -97.872438 0 2190ft 228kts
14-Sep-20 13:27 36.395619 -97.854164 1 2285ft 223kts
14-Sep-20 13:28 36.390970 -97.911812 215 2290ft 206kts
14-Sep-20 13:29 36.336653 -97.907710 91 2296ft 187kts
14-Sep-20 13:30 36.379200 -97.884026 63 2772ft 200kts
14-Sep-20 13:31 36.419558 -97.847726 352 2988ft 227kts
14-Sep-20 13:32 36.435227 -97.890780 223 2627ft 212kts
14-Sep-20 13:33 36.387342 -97.914429 180 2204ft 183kts
14-Sep-20 13:34 36.335732 -97.907825 133 2261ft 190kts
14-Sep-20 13:35 36.356141 -97.909242 207 1556ft 110kts
14-Sep-20 13:36 36.329417 -97.911599 179 1688ft 138kts
14-Sep-20 13:37 36.318306 -97.858191 54 2293ft 217kts
14-Sep-20 13:38 36.378686 -97.853704 0 2299ft 226kts
14-Sep-20 13:40 36.393503 -97.902533 223 2384ft 193kts
14-Sep-20 13:41 36.339974 -97.910979 180 2297ft 202kts
14-Sep-20 13:42 36.367350 -97.896990 290 1961ft 135kts
14-Sep-20 13:43 36.348838 -97.911088 177 1325ft 104kts
14-Sep-20 13:44 36.315170 -97.890903 86 1741ft 234kts
14-Sep-20 13:45 36.351328 -97.854530 358 2335ft 223kts
14-Sep-20 13:46 36.409754 -97.862870 274 2360ft 200kts
14-Sep-20 13:47 36.384626 -97.910964 177 1871ft 181kts
14-Sep-20 13:48 36.348244 -97.911091 179 1295ft 96kts
14-Sep-20 13:49 36.329328 -97.911169 179 1443ft 114kts
14-Sep-20 13:50 36.335407 -97.901207 9 2380ft 173kts
14-Sep-20 13:51 36.362508 -97.909010 213 1730ft 107kts
14-Sep-20 13:52 36.336677 -97.911167 181 1448ft 110kts
14-Sep-20 13:53 36.332972 -97.897160 4 2303ft 185kts
14-Sep-20 13:54 36.367371 -97.902549 239 1675ft 111kts
14-Sep-20 13:55 36.342032 -97.911145 180 1284ft 77kts
14-Sep-20 13:56 36.320322 -97.897576 2 2341ft 183kts
14-Sep-20 13:57 36.360977 -97.899954 260 1886ft 114kts
14-Sep-20 13:57 36.342173 -97.911102 180 1283ft 74kts
14-Sep-20 13:58 36.313338 -97.889681 91 1789ft 232kts
14-Sep-20 13:59 36.352075 -97.854092 0 2387ft 224kts
14-Sep-20 14:01 36.392736 -97.853979 355 2339ft 225kts
14-Sep-20 14:01 36.396987 -97.885973 245 2237ft 200kts
14-Sep-20 14:02 36.349640 -97.910466 180 2282ft 206kts
14-Sep-20 14:03 36.365167 -97.901316 264 1912ft 126kts
14-Sep-20 14:04 36.341227 -97.911125 176 1286ft 84kts
14-Sep-20 14:05 36.315910 -97.893129 37 2389ft 176kts
14-Sep-20 14:06 36.323033 -97.890906 358 2368ft 177kts
14-Sep-20 14:07 36.339766 -97.878688 88 2362ft 185kts
14-Sep-20 14:08 36.381612 -97.848741 52 2472ft 210kts
14-Sep-20 14:09 36.399878 -97.858725 274 2182ft 212kts
14-Sep-20 14:10 36.395403 -97.889392 180 2143ft 193kts
14-Sep-20 14:11 36.410859 -97.930169 351 2320ft 212kts
14-Sep-20 14:12 36.440187 -97.878204 131 2413ft 193kts
14-Sep-20 14:13 36.395323 -97.889626 194 2229ft 199kts
14-Sep-20 14:14 36.358151 -97.910568 185 1642ft 144kts
14-Sep-20 14:15 36.335762 -97.911086 180 1290ft 35kts
14-Sep-20 14:16 36.337379 -97.910960 359 1289ft 99kts
14-Sep-20 14:17 36.377191 -97.894954 90 1765ft 232kts
14-Sep-20 14:18 36.351461 -97.853598 179 2280ft 199kts
14-Sep-20 14:19 36.293958 -97.853629 180 2366ft 206kts
14-Sep-20 14:20 36.277556 -97.892859 311 2256ft 212kts
14-Sep-20 14:21 36.331606 -97.910916 0 2314ft 222kts
14-Sep-20 14:22 36.319112 -97.902293 252 2253ft 125kts
14-Sep-20 14:23 36.349347 -97.910904 357 1543ft 143kts
14-Sep-20 14:24 36.344325 -97.898948 183 2299ft 142kts
14-Sep-20 14:25 36.337711 -97.911057 359 1313ft 96kts
14-Sep-20 14:26 36.345965 -97.910937 358 1312ft 108kts
14-Sep-20 14:27 36.345965 -97.910937 358 1312ft 108kts
14-Sep-20 14:28 36.345965 -97.910937 358 1312ft 108kts
14-Sep-20 14:29 36.345965 -97.910937 358 1312ft 108kts
14-Sep-20 14:30 36.345965 -97.910937 358 1312ft 108kts

Navigation Log

Ident Type
Flight plan parsing failed, navigation log unavailable